createdAt,value
2022-08-01T00:02:22.952Z,100.00
2022-08-01T00:07:25.226Z,100.00
2022-08-01T00:12:27.660Z,100.00
2022-08-01T00:17:29.795Z,100.00
2022-08-01T00:22:33.436Z,100.00
2022-08-01T00:27:37.810Z,100.00
2022-08-01T00:32:40.325Z,100.00
2022-08-01T00:37:42.636Z,100.00
2022-08-01T00:42:44.844Z,100.00
2022-08-01T00:47:47.141Z,100.00
2022-08-01T00:52:51.526Z,100.00
2022-08-01T00:58:02.654Z,100.00
2022-08-01T01:03:07.841Z,100.00
2022-08-01T01:08:18.160Z,100.00
2022-08-01T01:13:50.181Z,100.00
2022-08-01T01:18:56.187Z,100.00
2022-08-01T01:24:28.472Z,100.00
2022-08-01T01:29:58.575Z,100.00
2022-08-01T01:35:10.637Z,100.00
2022-08-01T01:40:15.219Z,100.00
2022-08-01T01:45:18.939Z,100.00
2022-08-01T01:50:26.281Z,100.00
2022-08-01T01:55:29.871Z,100.00
2022-08-01T02:00:34.013Z,100.00
2022-08-01T02:05:40.137Z,100.00
2022-08-01T02:11:03.700Z,100.00
2022-08-01T02:16:07.146Z,100.00
2022-08-01T02:21:13.166Z,100.00
2022-08-01T02:26:18.592Z,100.00
2022-08-01T02:31:23.863Z,100.00
2022-08-01T02:36:33.100Z,100.00
2022-08-01T02:41:41.425Z,100.00
2022-08-01T02:46:52.752Z,100.00
2022-08-01T02:51:57.145Z,100.00
2022-08-01T02:57:01.902Z,100.00
2022-08-01T03:02:06.473Z,100.00
2022-08-01T03:07:12.899Z,100.00
2022-08-01T03:12:20.050Z,100.00
2022-08-01T03:17:25.939Z,100.00
2022-08-01T03:22:30.606Z,100.00
2022-08-01T03:27:34.282Z,100.00
2022-08-01T03:32:36.900Z,100.00
2022-08-01T03:38:14.773Z,100.00
2022-08-01T03:43:20.544Z,100.00
2022-08-01T03:48:31.008Z,100.00
2022-08-01T03:53:35.363Z,100.00
2022-08-01T03:58:40.567Z,100.00
2022-08-01T04:03:43.743Z,100.00
2022-08-01T04:08:56.788Z,100.00
2022-08-01T04:13:59.422Z,100.00
2022-08-01T04:19:02.496Z,95.47
2022-08-01T04:24:19.010Z,96.77
2022-08-01T04:29:22.996Z,98.43
2022-08-01T04:34:29.946Z,95.27
2022-08-01T04:39:50.812Z,96.29
2022-08-01T04:44:53.822Z,92.50
2022-08-01T04:49:57.848Z,86.04
2022-08-01T04:54:59.974Z,83.62
2022-08-01T05:00:03.726Z,80.33
2022-08-01T05:05:09.226Z,72.18
2022-08-01T05:10:11.376Z,61.80
2022-08-01T05:15:15.669Z,55.33
2022-08-01T05:20:18.285Z,56.77
2022-08-01T05:25:53.128Z,57.55
2022-08-01T05:30:45.575Z,50.18
2022-08-01T05:35:49.359Z,48.14
2022-08-01T05:41:32.034Z,45.60
2022-08-01T05:46:38.436Z,43.73
2022-08-01T05:51:40.732Z,43.26
2022-08-01T05:56:42.878Z,40.10
2022-08-01T06:01:45.114Z,38.69
2022-08-01T06:06:48.004Z,38.44
2022-08-01T06:11:50.152Z,38.83
2022-08-01T06:16:52.405Z,37.12
2022-08-01T06:21:54.748Z,36.86
2022-08-01T06:26:56.934Z,34.96
2022-08-01T06:31:59.192Z,31.45
2022-08-01T06:37:01.305Z,29.04
2022-08-01T06:42:10.560Z,28.50
2022-08-01T06:47:12.828Z,29.10
2022-08-01T06:52:15.025Z,27.65
2022-08-01T06:57:17.523Z,25.24
2022-08-01T07:02:23.006Z,27.00
2022-08-01T07:07:25.458Z,27.22
2022-08-01T07:12:29.470Z,29.10
2022-08-01T07:17:31.611Z,27.93
2022-08-01T07:22:33.777Z,27.80
2022-08-01T07:27:39.605Z,28.50
2022-08-01T07:32:41.975Z,27.70
2022-08-01T07:37:48.956Z,30.11
2022-08-01T07:42:54.022Z,29.71
2022-08-01T07:47:56.606Z,28.73
2022-08-01T07:52:59.024Z,31.23
2022-08-01T07:58:01.653Z,32.21
2022-08-01T08:03:03.844Z,31.40
2022-08-01T08:08:07.216Z,32.49
2022-08-01T08:13:09.695Z,30.92
2022-08-01T08:18:12.107Z,31.11
2022-08-01T08:23:41.949Z,31.09
2022-08-01T08:28:45.645Z,29.64
2022-08-01T08:33:47.912Z,29.85
2022-08-01T08:38:50.289Z,28.99
2022-08-01T08:43:54.710Z,29.94
2022-08-01T08:48:57.686Z,30.47
2022-08-01T08:54:04.149Z,30.88
2022-08-01T08:59:06.874Z,30.15
2022-08-01T09:04:15.137Z,30.11
2022-08-01T09:09:18.193Z,31.33
2022-08-01T09:14:31.734Z,31.36
2022-08-01T09:19:54.606Z,31.10
2022-08-01T09:25:12.102Z,32.02
2022-08-01T09:30:19.559Z,31.24
2022-08-01T09:35:43.838Z,30.51
2022-08-01T09:40:54.208Z,31.70
2022-08-01T09:45:57.857Z,32.95
2022-08-01T09:51:09.329Z,32.00
2022-08-01T09:56:14.005Z,32.06
2022-08-01T10:01:17.762Z,33.20
2022-08-01T10:06:24.748Z,31.19
2022-08-01T10:11:36.447Z,31.80
2022-08-01T10:16:40.593Z,35.11
2022-08-01T10:21:57.074Z,32.37
2022-08-01T10:27:09.293Z,32.18
2022-08-01T10:32:17.497Z,32.84
2022-08-01T10:37:20.229Z,33.52
2022-08-01T10:42:23.029Z,33.68
2022-08-01T10:47:49.753Z,34.88
2022-08-01T10:53:23.873Z,33.96
2022-08-01T10:58:42.782Z,31.68
2022-08-01T11:04:18.203Z,32.45
2022-08-01T11:09:42.195Z,33.59
2022-08-01T11:14:59.981Z,33.84
2022-08-01T11:20:05.556Z,34.96
2022-08-01T11:25:07.909Z,35.00
2022-08-01T11:30:13.276Z,34.21
2022-08-01T11:35:17.109Z,34.62
2022-08-01T11:40:30.426Z,35.89
2022-08-01T11:45:56.934Z,34.12
2022-08-01T11:51:02.035Z,34.73
2022-08-01T11:56:05.601Z,35.02
2022-08-01T12:01:08.117Z,33.46
2022-08-01T12:06:11.189Z,31.62
2022-08-01T12:11:13.744Z,33.68
2022-08-01T12:16:16.445Z,34.36
2022-08-01T12:21:20.546Z,34.48
2022-08-01T12:26:28.515Z,36.05
2022-08-01T12:31:37.735Z,36.67
2022-08-01T12:36:40.132Z,34.56
2022-08-01T12:41:45.191Z,34.70
2022-08-01T12:46:47.554Z,35.30
2022-08-01T12:51:57.195Z,35.54
2022-08-01T12:57:07.146Z,36.23
2022-08-01T13:02:10.394Z,36.49
2022-08-01T13:07:14.662Z,36.42
2022-08-01T13:12:43.883Z,36.71
2022-08-01T13:17:51.751Z,35.94
2022-08-01T13:22:56.169Z,35.96
2022-08-01T13:28:29.367Z,35.77
2022-08-01T13:33:44.571Z,36.01
2022-08-01T13:39:06.062Z,37.02
2022-08-01T13:44:10.148Z,37.28
2022-08-01T13:49:16.218Z,35.48
2022-08-01T13:54:19.294Z,34.79
2022-08-01T13:59:22.503Z,35.41
2022-08-01T14:04:24.913Z,35.60
2022-08-01T14:09:32.512Z,35.48
2022-08-01T14:14:38.124Z,34.90
2022-08-01T14:19:46.362Z,35.02
2022-08-01T14:24:51.217Z,34.95
2022-08-01T14:30:05.458Z,34.42
2022-08-01T14:35:08.709Z,34.56
2022-08-01T14:40:11.676Z,35.81
2022-08-01T14:45:14.786Z,36.85
2022-08-01T14:50:17.402Z,35.12
2022-08-01T14:55:24.567Z,35.93
2022-08-01T15:00:26.994Z,36.93
2022-08-01T15:05:30.125Z,36.73
2022-08-01T15:10:33.416Z,37.32
2022-08-01T15:15:35.536Z,37.37
2022-08-01T15:20:40.805Z,37.80
2022-08-01T15:25:43.238Z,39.81
2022-08-01T15:30:46.504Z,39.48
2022-08-01T15:35:48.709Z,38.38
2022-08-01T15:41:04.923Z,39.36
2022-08-01T15:46:08.575Z,42.88
2022-08-01T15:51:12.247Z,44.72
2022-08-01T15:56:14.998Z,44.40
2022-08-01T16:01:17.511Z,44.73
2022-08-01T16:06:20.255Z,42.49
2022-08-01T16:11:24.188Z,40.90
2022-08-01T16:16:26.666Z,44.70
2022-08-01T16:21:29.168Z,41.56
2022-08-01T16:26:31.922Z,44.21
2022-08-01T16:31:42.192Z,43.90
2022-08-01T16:36:56.497Z,42.74
2022-08-01T16:41:59.099Z,42.21
2022-08-01T16:47:19.504Z,43.60
2022-08-01T16:52:28.674Z,42.37
2022-08-01T16:57:39.450Z,43.78
2022-08-01T17:02:48.543Z,43.43
2022-08-01T17:07:51.064Z,46.56
2022-08-01T17:12:53.562Z,46.85
2022-08-01T17:17:56.502Z,50.55
2022-08-01T17:22:59.147Z,53.37
2022-08-01T17:28:06.129Z,55.73
2022-08-01T17:33:11.610Z,58.24
2022-08-01T17:38:14.336Z,59.00
2022-08-01T17:43:16.813Z,63.59
2022-08-01T17:48:20.253Z,64.10
2022-08-01T17:53:24.296Z,65.28
2022-08-01T17:58:36.759Z,68.84
2022-08-01T18:03:50.636Z,70.61
2022-08-01T18:08:56.056Z,70.70
2022-08-01T18:13:59.670Z,73.15
2022-08-01T18:19:05.500Z,70.60
2022-08-01T18:24:07.994Z,74.22
2022-08-01T18:29:11.009Z,74.29
2022-08-01T18:34:14.761Z,75.36
2022-08-01T18:39:19.525Z,76.79
2022-08-01T18:44:24.301Z,77.37
2022-08-01T18:49:26.786Z,76.81
2022-08-01T18:54:30.397Z,77.42
2022-08-01T18:59:35.584Z,79.49
2022-08-01T19:04:45.011Z,80.82
2022-08-01T19:09:47.456Z,79.10
2022-08-01T19:14:50.074Z,80.21
2022-08-01T19:19:58.944Z,79.30
2022-08-01T19:25:06.191Z,78.61
2022-08-01T19:30:10.339Z,80.84
2022-08-01T19:35:15.114Z,79.16
2022-08-01T19:40:26.716Z,82.41
2022-08-01T19:45:33.687Z,83.08
2022-08-01T19:50:44.679Z,80.87
2022-08-01T19:55:56.055Z,81.79
2022-08-01T20:00:58.548Z,83.73
2022-08-01T20:06:07.103Z,82.07
2022-08-01T20:11:39.780Z,82.72
2022-08-01T20:16:42.974Z,83.27
2022-08-01T20:22:03.039Z,81.40
2022-08-01T20:32:29.534Z,82.28
2022-08-01T20:38:04.144Z,82.39
2022-08-01T20:43:03.945Z,82.08
2022-08-01T20:48:17.806Z,80.64
2022-08-01T20:53:22.345Z,81.10
2022-08-01T20:58:40.701Z,82.02
2022-08-01T21:04:04.038Z,81.66
2022-08-01T21:09:06.893Z,81.05
2022-08-01T21:14:19.655Z,77.73
2022-08-01T21:19:45.531Z,73.67
2022-08-01T21:25:03.781Z,68.69
2022-08-01T21:30:11.372Z,69.91
2022-08-01T21:35:15.881Z,68.89
2022-08-01T21:40:26.055Z,65.17
2022-08-01T21:45:30.409Z,63.98
2022-08-01T21:50:44.585Z,63.31
2022-08-01T21:56:14.869Z,65.97
2022-08-01T22:01:51.335Z,62.15
2022-08-01T22:06:57.302Z,64.67
2022-08-01T22:12:07.159Z,64.23
2022-08-01T22:17:13.845Z,63.47
2022-08-01T22:22:44.586Z,64.62
2022-08-01T22:28:05.973Z,64.20
2022-08-01T22:33:15.669Z,65.42
2022-08-01T22:38:23.790Z,65.02
2022-08-01T22:43:40.075Z,65.88
2022-08-01T22:48:50.086Z,65.77
2022-08-01T22:54:09.486Z,66.30
2022-08-01T22:59:41.696Z,66.53
2022-08-01T23:04:48.454Z,67.88
2022-08-01T23:09:54.965Z,68.09
2022-08-01T23:14:59.469Z,69.18
2022-08-01T23:20:12.778Z,71.11
2022-08-01T23:25:16.183Z,75.12
2022-08-01T23:30:18.532Z,77.82
2022-08-01T23:35:21.018Z,79.49
2022-08-01T23:40:24.965Z,81.63
2022-08-01T23:45:27.723Z,82.53
2022-08-01T23:50:29.972Z,83.70
2022-08-01T23:55:37.608Z,86.49
